sensor_id;sensor_type;location;lat;lon;timestamp;P1;durP1;ratioP1;P2;durP2;ratioP2
74674;SDS011;63200;48.810;12.352;2023-09-08T00:01:41;7.45;;;4.47;;
74674;SDS011;63200;48.810;12.352;2023-09-08T00:04:07;4.78;;;4.18;;
74674;SDS011;63200;48.810;12.352;2023-09-08T00:06:32;4.80;;;4.38;;
74674;SDS011;63200;48.810;12.352;2023-09-08T00:08:58;7.97;;;4.63;;
74674;SDS011;63200;48.810;12.352;2023-09-08T00:11:23;7.22;;;4.72;;
74674;SDS011;63200;48.810;12.352;2023-09-08T00:13:48;7.47;;;5.25;;
74674;SDS011;63200;48.810;12.352;2023-09-08T00:16:15;7.88;;;4.22;;
74674;SDS011;63200;48.810;12.352;2023-09-08T00:18:40;7.53;;;4.30;;
74674;SDS011;63200;48.810;12.352;2023-09-08T00:21:06;4.40;;;4.00;;
74674;SDS011;63200;48.810;12.352;2023-09-08T00:23:31;4.50;;;3.95;;
74674;SDS011;63200;48.810;12.352;2023-09-08T00:25:56;4.47;;;4.18;;
74674;SDS011;63200;48.810;12.352;2023-09-08T00:28:23;7.68;;;4.65;;
74674;SDS011;63200;48.810;12.352;2023-09-08T00:30:48;9.05;;;4.25;;
74674;SDS011;63200;48.810;12.352;2023-09-08T00:33:14;4.68;;;4.22;;
74674;SDS011;63200;48.810;12.352;2023-09-08T00:35:39;6.25;;;4.90;;
74674;SDS011;63200;48.810;12.352;2023-09-08T00:38:08;4.97;;;4.53;;
74674;SDS011;63200;48.810;12.352;2023-09-08T00:40:34;5.32;;;4.82;;
74674;SDS011;63200;48.810;12.352;2023-09-08T00:42:59;6.22;;;5.63;;
74674;SDS011;63200;48.810;12.352;2023-09-08T00:45:26;7.93;;;4.80;;
74674;SDS011;63200;48.810;12.352;2023-09-08T00:47:54;5.47;;;4.97;;
74674;SDS011;63200;48.810;12.352;2023-09-08T00:50:20;7.93;;;5.30;;
74674;SDS011;63200;48.810;12.352;2023-09-08T00:52:45;5.95;;;4.80;;
74674;SDS011;63200;48.810;12.352;2023-09-08T00:55:10;6.88;;;5.05;;
74674;SDS011;63200;48.810;12.352;2023-09-08T00:57:36;5.28;;;4.78;;
74674;SDS011;63200;48.810;12.352;2023-09-08T01:00:02;7.68;;;4.75;;
74674;SDS011;63200;48.810;12.352;2023-09-08T01:02:30;5.22;;;4.82;;
74674;SDS011;63200;48.810;12.352;2023-09-08T01:04:56;6.05;;;5.20;;
74674;SDS011;63200;48.810;12.352;2023-09-08T01:07:24;5.78;;;4.93;;
74674;SDS011;63200;48.810;12.352;2023-09-08T01:09:53;9.63;;;5.50;;
74674;SDS011;63200;48.810;12.352;2023-09-08T01:12:19;5.35;;;4.85;;
74674;SDS011;63200;48.810;12.352;2023-09-08T01:14:45;5.85;;;4.78;;
74674;SDS011;63200;48.810;12.352;2023-09-08T01:17:10;6.13;;;4.85;;
74674;SDS011;63200;48.810;12.352;2023-09-08T01:19:37;7.78;;;5.45;;
74674;SDS011;63200;48.810;12.352;2023-09-08T01:22:11;5.60;;;5.10;;
74674;SDS011;63200;48.810;12.352;2023-09-08T01:27:50;5.15;;;4.72;;
74674;SDS011;63200;48.810;12.352;2023-09-08T01:30:17;5.65;;;4.60;;
74674;SDS011;63200;48.810;12.352;2023-09-08T01:32:43;9.73;;;4.97;;
74674;SDS011;63200;48.810;12.352;2023-09-08T01:35:09;5.57;;;5.00;;
74674;SDS011;63200;48.810;12.352;2023-09-08T01:37:36;5.85;;;4.47;;
74674;SDS011;63200;48.810;12.352;2023-09-08T01:40:06;4.85;;;4.25;;
74674;SDS011;63200;48.810;12.352;2023-09-08T01:42:31;4.65;;;4.22;;
74674;SDS011;63200;48.810;12.352;2023-09-08T01:44:57;5.70;;;3.88;;
74674;SDS011;63200;48.810;12.352;2023-09-08T01:47:22;6.68;;;4.03;;
74674;SDS011;63200;48.810;12.352;2023-09-08T01:49:47;4.57;;;4.18;;
74674;SDS011;63200;48.810;12.352;2023-09-08T01:52:13;7.75;;;4.03;;
74674;SDS011;63200;48.810;12.352;2023-09-08T01:54:38;8.52;;;4.80;;
74674;SDS011;63200;48.810;12.352;2023-09-08T01:57:03;7.07;;;4.38;;
74674;SDS011;63200;48.810;12.352;2023-09-08T01:59:29;5.65;;;4.18;;
74674;SDS011;63200;48.810;12.352;2023-09-08T02:01:54;4.72;;;4.32;;
74674;SDS011;63200;48.810;12.352;2023-09-08T02:04:19;4.80;;;4.40;;
74674;SDS011;63200;48.810;12.352;2023-09-08T02:06:45;5.35;;;4.57;;
74674;SDS011;63200;48.810;12.352;2023-09-08T02:09:11;5.93;;;4.57;;
74674;SDS011;63200;48.810;12.352;2023-09-08T02:11:38;6.72;;;4.82;;
74674;SDS011;63200;48.810;12.352;2023-09-08T02:14:04;7.30;;;5.05;;
74674;SDS011;63200;48.810;12.352;2023-09-08T02:16:29;5.97;;;4.80;;
74674;SDS011;63200;48.810;12.352;2023-09-08T02:18:54;6.82;;;4.70;;
74674;SDS011;63200;48.810;12.352;2023-09-08T02:21:20;7.15;;;4.80;;
74674;SDS011;63200;48.810;12.352;2023-09-08T02:23:46;5.97;;;4.90;;
74674;SDS011;63200;48.810;12.352;2023-09-08T02:26:11;5.38;;;4.88;;
74674;SDS011;63200;48.810;12.352;2023-09-08T02:28:37;6.20;;;4.70;;
74674;SDS011;63200;48.810;12.352;2023-09-08T02:31:02;8.55;;;5.32;;
74674;SDS011;63200;48.810;12.352;2023-09-08T02:33:27;5.30;;;4.80;;
74674;SDS011;63200;48.810;12.352;2023-09-08T02:35:53;5.50;;;4.80;;
74674;SDS011;63200;48.810;12.352;2023-09-08T02:38:18;5.40;;;4.72;;
74674;SDS011;63200;48.810;12.352;2023-09-08T02:40:44;5.25;;;4.40;;
74674;SDS011;63200;48.810;12.352;2023-09-08T02:43:09;8.38;;;4.95;;
74674;SDS011;63200;48.810;12.352;2023-09-08T02:45:35;7.65;;;5.03;;
74674;SDS011;63200;48.810;12.352;2023-09-08T02:48:00;6.13;;;4.85;;
74674;SDS011;63200;48.810;12.352;2023-09-08T02:50:26;5.38;;;4.95;;
74674;SDS011;63200;48.810;12.352;2023-09-08T02:52:51;5.38;;;4.72;;
74674;SDS011;63200;48.810;12.352;2023-09-08T02:55:17;5.45;;;4.95;;
74674;SDS011;63200;48.810;12.352;2023-09-08T02:57:42;5.50;;;4.97;;
74674;SDS011;63200;48.810;12.352;2023-09-08T03:00:08;6.70;;;4.60;;
74674;SDS011;63200;48.810;12.352;2023-09-08T03:02:34;6.10;;;5.50;;
74674;SDS011;63200;48.810;12.352;2023-09-08T03:04:59;5.45;;;4.90;;
74674;SDS011;63200;48.810;12.352;2023-09-08T03:07:25;5.63;;;4.90;;
74674;SDS011;63200;48.810;12.352;2023-09-08T03:09:51;5.32;;;4.82;;
74674;SDS011;63200;48.810;12.352;2023-09-08T03:12:16;7.90;;;5.13;;
74674;SDS011;63200;48.810;12.352;2023-09-08T03:14:42;7.38;;;5.40;;
74674;SDS011;63200;48.810;12.352;2023-09-08T03:17:07;7.43;;;4.80;;
74674;SDS011;63200;48.810;12.352;2023-09-08T03:19:32;6.75;;;5.03;;
74674;SDS011;63200;48.810;12.352;2023-09-08T03:21:58;7.70;;;5.40;;
74674;SDS011;63200;48.810;12.352;2023-09-08T03:24:23;6.63;;;4.47;;
74674;SDS011;63200;48.810;12.352;2023-09-08T03:26:49;4.95;;;4.45;;
74674;SDS011;63200;48.810;12.352;2023-09-08T03:29:14;6.18;;;4.18;;
74674;SDS011;63200;48.810;12.352;2023-09-08T03:31:39;5.15;;;4.65;;
74674;SDS011;63200;48.810;12.352;2023-09-08T03:34:05;6.00;;;4.63;;
74674;SDS011;63200;48.810;12.352;2023-09-08T03:36:30;5.68;;;4.60;;
74674;SDS011;63200;48.810;12.352;2023-09-08T03:38:56;5.47;;;4.80;;
74674;SDS011;63200;48.810;12.352;2023-09-08T03:41:23;6.60;;;5.03;;
74674;SDS011;63200;48.810;12.352;2023-09-08T03:43:48;8.02;;;4.88;;
74674;SDS011;63200;48.810;12.352;2023-09-08T03:46:14;7.93;;;5.57;;
74674;SDS011;63200;48.810;12.352;2023-09-08T03:48:39;6.47;;;5.40;;
74674;SDS011;63200;48.810;12.352;2023-09-08T03:51:04;7.47;;;5.45;;
74674;SDS011;63200;48.810;12.352;2023-09-08T03:53:30;6.30;;;5.28;;
74674;SDS011;63200;48.810;12.352;2023-09-08T03:55:56;9.15;;;5.07;;
74674;SDS011;63200;48.810;12.352;2023-09-08T03:58:21;8.82;;;5.63;;
74674;SDS011;63200;48.810;12.352;2023-09-08T04:00:46;6.05;;;5.38;;
74674;SDS011;63200;48.810;12.352;2023-09-08T04:03:12;6.78;;;5.28;;
74674;SDS011;63200;48.810;12.352;2023-09-08T04:05:37;12.90;;;5.72;;
74674;SDS011;63200;48.810;12.352;2023-09-08T04:08:02;8.45;;;5.95;;
74674;SDS011;63200;48.810;12.352;2023-09-08T04:10:28;7.18;;;5.80;;
74674;SDS011;63200;48.810;12.352;2023-09-08T04:12:53;7.07;;;5.35;;
74674;SDS011;63200;48.810;12.352;2023-09-08T04:15:18;6.80;;;5.43;;
74674;SDS011;63200;48.810;12.352;2023-09-08T04:17:45;7.70;;;5.50;;
74674;SDS011;63200;48.810;12.352;2023-09-08T04:20:10;6.05;;;5.45;;
74674;SDS011;63200;48.810;12.352;2023-09-08T04:22:36;6.10;;;5.50;;
74674;SDS011;63200;48.810;12.352;2023-09-08T04:25:01;6.03;;;5.43;;
74674;SDS011;63200;48.810;12.352;2023-09-08T04:27:27;8.05;;;5.65;;
74674;SDS011;63200;48.810;12.352;2023-09-08T04:29:52;5.80;;;5.20;;
74674;SDS011;63200;48.810;12.352;2023-09-08T04:32:17;7.13;;;4.55;;
74674;SDS011;63200;48.810;12.352;2023-09-08T04:34:43;4.97;;;4.38;;
74674;SDS011;63200;48.810;12.352;2023-09-08T04:37:08;5.90;;;4.70;;
74674;SDS011;63200;48.810;12.352;2023-09-08T04:39:34;7.60;;;5.00;;
74674;SDS011;63200;48.810;12.352;2023-09-08T04:42:00;6.63;;;4.97;;
74674;SDS011;63200;48.810;12.352;2023-09-08T04:44:26;4.90;;;4.40;;
74674;SDS011;63200;48.810;12.352;2023-09-08T04:46:52;5.00;;;4.55;;
74674;SDS011;63200;48.810;12.352;2023-09-08T04:49:17;5.78;;;4.75;;
74674;SDS011;63200;48.810;12.352;2023-09-08T04:51:43;7.13;;;4.55;;
74674;SDS011;63200;48.810;12.352;2023-09-08T04:54:09;5.10;;;4.60;;
74674;SDS011;63200;48.810;12.352;2023-09-08T04:56:34;5.65;;;5.03;;
74674;SDS011;63200;48.810;12.352;2023-09-08T04:58:59;6.88;;;4.50;;
74674;SDS011;63200;48.810;12.352;2023-09-08T05:01:26;5.45;;;4.75;;
74674;SDS011;63200;48.810;12.352;2023-09-08T05:03:57;6.93;;;5.03;;
74674;SDS011;63200;48.810;12.352;2023-09-08T05:06:24;8.25;;;4.75;;
74674;SDS011;63200;48.810;12.352;2023-09-08T05:08:49;6.45;;;5.22;;
74674;SDS011;63200;48.810;12.352;2023-09-08T05:11:15;6.68;;;5.05;;
74674;SDS011;63200;48.810;12.352;2023-09-08T05:13:40;6.80;;;4.95;;
74674;SDS011;63200;48.810;12.352;2023-09-08T05:16:06;10.32;;;5.25;;
74674;SDS011;63200;48.810;12.352;2023-09-08T05:18:38;13.48;;;6.05;;
74674;SDS011;63200;48.810;12.352;2023-09-08T05:21:04;7.00;;;5.35;;
74674;SDS011;63200;48.810;12.352;2023-09-08T05:23:30;6.72;;;4.85;;
74674;SDS011;63200;48.810;12.352;2023-09-08T05:25:55;5.65;;;5.15;;
74674;SDS011;63200;48.810;12.352;2023-09-08T05:28:20;8.82;;;5.40;;
74674;SDS011;63200;48.810;12.352;2023-09-08T05:30:46;5.80;;;5.20;;
74674;SDS011;63200;48.810;12.352;2023-09-08T05:33:11;13.15;;;5.05;;
74674;SDS011;63200;48.810;12.352;2023-09-08T05:35:36;7.70;;;5.70;;
74674;SDS011;63200;48.810;12.352;2023-09-08T05:38:02;8.55;;;5.65;;
74674;SDS011;63200;48.810;12.352;2023-09-08T05:40:27;7.70;;;5.80;;
74674;SDS011;63200;48.810;12.352;2023-09-08T05:42:53;8.45;;;5.47;;
74674;SDS011;63200;48.810;12.352;2023-09-08T05:45:18;9.82;;;5.93;;
74674;SDS011;63200;48.810;12.352;2023-09-08T05:47:44;7.78;;;5.38;;
74674;SDS011;63200;48.810;12.352;2023-09-08T05:50:09;8.23;;;5.85;;
74674;SDS011;63200;48.810;12.352;2023-09-08T05:52:35;8.63;;;6.30;;
74674;SDS011;63200;48.810;12.352;2023-09-08T05:55:00;11.15;;;6.50;;
74674;SDS011;63200;48.810;12.352;2023-09-08T05:57:25;6.90;;;6.05;;
74674;SDS011;63200;48.810;12.352;2023-09-08T05:59:50;6.35;;;5.75;;
74674;SDS011;63200;48.810;12.352;2023-09-08T06:02:16;7.50;;;5.90;;
74674;SDS011;63200;48.810;12.352;2023-09-08T06:04:41;13.43;;;6.13;;
74674;SDS011;63200;48.810;12.352;2023-09-08T06:07:07;8.32;;;5.90;;
74674;SDS011;63200;48.810;12.352;2023-09-08T06:09:32;6.47;;;5.88;;
74674;SDS011;63200;48.810;12.352;2023-09-08T06:11:57;8.88;;;6.22;;
74674;SDS011;63200;48.810;12.352;2023-09-08T06:14:23;9.35;;;5.68;;
74674;SDS011;63200;48.810;12.352;2023-09-08T06:16:48;6.18;;;5.60;;
74674;SDS011;63200;48.810;12.352;2023-09-08T06:19:13;6.38;;;5.57;;
74674;SDS011;63200;48.810;12.352;2023-09-08T06:21:39;6.60;;;6.00;;
74674;SDS011;63200;48.810;12.352;2023-09-08T06:24:04;6.32;;;5.72;;
74674;SDS011;63200;48.810;12.352;2023-09-08T06:26:30;6.82;;;5.82;;
74674;SDS011;63200;48.810;12.352;2023-09-08T06:28:55;8.55;;;5.78;;
74674;SDS011;63200;48.810;12.352;2023-09-08T06:31:20;8.18;;;6.25;;
74674;SDS011;63200;48.810;12.352;2023-09-08T06:33:45;6.95;;;6.25;;
74674;SDS011;63200;48.810;12.352;2023-09-08T06:36:11;7.10;;;6.25;;
74674;SDS011;63200;48.810;12.352;2023-09-08T06:38:36;6.22;;;5.63;;
74674;SDS011;63200;48.810;12.352;2023-09-08T06:41:07;6.75;;;6.15;;
74674;SDS011;63200;48.810;12.352;2023-09-08T06:43:34;8.02;;;6.07;;
74674;SDS011;63200;48.810;12.352;2023-09-08T06:45:59;8.77;;;5.97;;
74674;SDS011;63200;48.810;12.352;2023-09-08T06:48:25;11.40;;;5.78;;
74674;SDS011;63200;48.810;12.352;2023-09-08T06:50:52;8.60;;;5.43;;
74674;SDS011;63200;48.810;12.352;2023-09-08T06:53:19;5.25;;;4.80;;
74674;SDS011;63200;48.810;12.352;2023-09-08T06:55:44;9.10;;;5.78;;
74674;SDS011;63200;48.810;12.352;2023-09-08T06:58:09;7.45;;;5.68;;
74674;SDS011;63200;48.810;12.352;2023-09-08T07:00:35;7.10;;;5.40;;
74674;SDS011;63200;48.810;12.352;2023-09-08T07:03:01;6.18;;;5.38;;
74674;SDS011;63200;48.810;12.352;2023-09-08T07:05:27;5.95;;;5.40;;
74674;SDS011;63200;48.810;12.352;2023-09-08T07:07:52;11.13;;;5.63;;
74674;SDS011;63200;48.810;12.352;2023-09-08T07:10:18;9.82;;;4.88;;
74674;SDS011;63200;48.810;12.352;2023-09-08T07:12:43;6.80;;;4.70;;
74674;SDS011;63200;48.810;12.352;2023-09-08T07:15:08;12.35;;;5.35;;
74674;SDS011;63200;48.810;12.352;2023-09-08T07:17:34;5.78;;;5.18;;
74674;SDS011;63200;48.810;12.352;2023-09-08T07:19:59;6.57;;;5.38;;
74674;SDS011;63200;48.810;12.352;2023-09-08T07:22:25;5.57;;;5.07;;
74674;SDS011;63200;48.810;12.352;2023-09-08T07:24:50;6.45;;;5.10;;
74674;SDS011;63200;48.810;12.352;2023-09-08T07:27:15;6.03;;;5.40;;
74674;SDS011;63200;48.810;12.352;2023-09-08T07:29:41;6.25;;;5.03;;
74674;SDS011;63200;48.810;12.352;2023-09-08T07:32:07;5.80;;;5.20;;
74674;SDS011;63200;48.810;12.352;2023-09-08T07:34:33;6.00;;;5.40;;
74674;SDS011;63200;48.810;12.352;2023-09-08T07:36:59;6.18;;;5.57;;
74674;SDS011;63200;48.810;12.352;2023-09-08T07:39:25;6.97;;;5.22;;
74674;SDS011;63200;48.810;12.352;2023-09-08T07:41:51;4.72;;;4.35;;
74674;SDS011;63200;48.810;12.352;2023-09-08T07:44:17;6.22;;;4.57;;
74674;SDS011;63200;48.810;12.352;2023-09-08T07:46:42;7.30;;;5.35;;
74674;SDS011;63200;48.810;12.352;2023-09-08T07:49:09;7.55;;;5.20;;
74674;SDS011;63200;48.810;12.352;2023-09-08T07:51:34;7.68;;;4.72;;
74674;SDS011;63200;48.810;12.352;2023-09-08T07:53:59;7.65;;;4.75;;
74674;SDS011;63200;48.810;12.352;2023-09-08T07:56:25;7.32;;;4.80;;
74674;SDS011;63200;48.810;12.352;2023-09-08T07:58:50;4.85;;;4.45;;
74674;SDS011;63200;48.810;12.352;2023-09-08T08:01:15;5.20;;;4.60;;
74674;SDS011;63200;48.810;12.352;2023-09-08T08:03:41;8.18;;;4.63;;
74674;SDS011;63200;48.810;12.352;2023-09-08T08:06:06;5.05;;;4.15;;
74674;SDS011;63200;48.810;12.352;2023-09-08T08:08:33;6.22;;;4.93;;
74674;SDS011;63200;48.810;12.352;2023-09-08T08:11:03;5.75;;;4.00;;
74674;SDS011;63200;48.810;12.352;2023-09-08T08:13:33;4.40;;;4.00;;
74674;SDS011;63200;48.810;12.352;2023-09-08T08:15:59;4.95;;;4.05;;
74674;SDS011;63200;48.810;12.352;2023-09-08T08:18:24;4.25;;;3.92;;
74674;SDS011;63200;48.810;12.352;2023-09-08T08:20:49;5.47;;;3.90;;
74674;SDS011;63200;48.810;12.352;2023-09-08T08:23:15;4.18;;;3.83;;
74674;SDS011;63200;48.810;12.352;2023-09-08T08:25:40;5.38;;;4.57;;
74674;SDS011;63200;48.810;12.352;2023-09-08T08:28:05;4.05;;;3.75;;
74674;SDS011;63200;48.810;12.352;2023-09-08T08:30:31;4.60;;;4.20;;
74674;SDS011;63200;48.810;12.352;2023-09-08T08:32:57;4.13;;;3.83;;
74674;SDS011;63200;48.810;12.352;2023-09-08T08:35:22;4.38;;;3.85;;
74674;SDS011;63200;48.810;12.352;2023-09-08T08:37:48;4.05;;;3.75;;
74674;SDS011;63200;48.810;12.352;2023-09-08T08:40:13;4.95;;;4.07;;
74674;SDS011;63200;48.810;12.352;2023-09-08T08:42:39;6.40;;;3.75;;
74674;SDS011;63200;48.810;12.352;2023-09-08T08:45:06;6.97;;;4.07;;
74674;SDS011;63200;48.810;12.352;2023-09-08T08:47:32;4.55;;;4.10;;
74674;SDS011;63200;48.810;12.352;2023-09-08T08:49:58;8.68;;;4.13;;
74674;SDS011;63200;48.810;12.352;2023-09-08T08:52:25;4.30;;;3.60;;
74674;SDS011;63200;48.810;12.352;2023-09-08T08:54:51;4.38;;;3.97;;
74674;SDS011;63200;48.810;12.352;2023-09-08T08:57:17;4.93;;;4.00;;
74674;SDS011;63200;48.810;12.352;2023-09-08T08:59:43;4.60;;;4.18;;
74674;SDS011;63200;48.810;12.352;2023-09-08T09:02:11;4.55;;;4.05;;
74674;SDS011;63200;48.810;12.352;2023-09-08T09:04:37;7.18;;;3.95;;
74674;SDS011;63200;48.810;12.352;2023-09-08T09:07:03;4.38;;;3.78;;
74674;SDS011;63200;48.810;12.352;2023-09-08T09:09:31;4.70;;;4.28;;
74674;SDS011;63200;48.810;12.352;2023-09-08T09:11:56;4.53;;;4.10;;
74674;SDS011;63200;48.810;12.352;2023-09-08T09:14:22;5.45;;;4.18;;
74674;SDS011;63200;48.810;12.352;2023-09-08T09:16:48;3.88;;;3.58;;
74674;SDS011;63200;48.810;12.352;2023-09-08T09:19:20;4.63;;;4.22;;
74674;SDS011;63200;48.810;12.352;2023-09-08T09:21:52;4.15;;;3.63;;
74674;SDS011;63200;48.810;12.352;2023-09-08T09:26:55;4.47;;;3.78;;
74674;SDS011;63200;48.810;12.352;2023-09-08T09:29:21;6.22;;;4.00;;
74674;SDS011;63200;48.810;12.352;2023-09-08T09:31:56;4.82;;;4.30;;
74674;SDS011;63200;48.810;12.352;2023-09-08T09:34:23;4.40;;;4.10;;
74674;SDS011;63200;48.810;12.352;2023-09-08T09:36:48;7.35;;;4.15;;
74674;SDS011;63200;48.810;12.352;2023-09-08T09:39:18;6.22;;;3.75;;
74674;SDS011;63200;48.810;12.352;2023-09-08T09:41:48;4.35;;;3.83;;
74674;SDS011;63200;48.810;12.352;2023-09-08T09:44:17;5.47;;;4.40;;
74674;SDS011;63200;48.810;12.352;2023-09-08T09:46:44;4.60;;;4.20;;
74674;SDS011;63200;48.810;12.352;2023-09-08T09:49:11;5.85;;;3.90;;
74674;SDS011;63200;48.810;12.352;2023-09-08T09:51:44;6.05;;;4.50;;
74674;SDS011;63200;48.810;12.352;2023-09-08T09:54:14;5.45;;;4.32;;
74674;SDS011;63200;48.810;12.352;2023-09-08T09:56:40;6.00;;;4.65;;
74674;SDS011;63200;48.810;12.352;2023-09-08T09:59:10;4.65;;;3.85;;
74674;SDS011;63200;48.810;12.352;2023-09-08T10:01:38;4.18;;;3.83;;
74674;SDS011;63200;48.810;12.352;2023-09-08T10:04:04;4.82;;;4.32;;
74674;SDS011;63200;48.810;12.352;2023-09-08T10:06:30;4.40;;;4.03;;
74674;SDS011;63200;48.810;12.352;2023-09-08T10:08:58;4.43;;;4.00;;
74674;SDS011;63200;48.810;12.352;2023-09-08T10:11:25;4.60;;;3.85;;
74674;SDS011;63200;48.810;12.352;2023-09-08T10:13:55;6.28;;;4.10;;
74674;SDS011;63200;48.810;12.352;2023-09-08T10:16:25;5.60;;;3.97;;
74674;SDS011;63200;48.810;12.352;2023-09-08T10:18:53;4.15;;;3.80;;
74674;SDS011;63200;48.810;12.352;2023-09-08T10:21:19;5.05;;;4.60;;
74674;SDS011;63200;48.810;12.352;2023-09-08T10:23:57;4.45;;;3.83;;
74674;SDS011;63200;48.810;12.352;2023-09-08T10:26:30;4.38;;;3.97;;
74674;SDS011;63200;48.810;12.352;2023-09-08T10:28:58;4.60;;;4.20;;
74674;SDS011;63200;48.810;12.352;2023-09-08T10:31:24;6.18;;;4.25;;
74674;SDS011;63200;48.810;12.352;2023-09-08T10:33:53;4.90;;;4.15;;
74674;SDS011;63200;48.810;12.352;2023-09-08T10:36:20;4.57;;;4.03;;
74674;SDS011;63200;48.810;12.352;2023-09-08T10:38:46;6.75;;;4.20;;
74674;SDS011;63200;48.810;12.352;2023-09-08T10:43:54;4.00;;;3.67;;
74674;SDS011;63200;48.810;12.352;2023-09-08T10:46:22;4.05;;;3.55;;
74674;SDS011;63200;48.810;12.352;2023-09-08T10:48:48;5.22;;;4.05;;
74674;SDS011;63200;48.810;12.352;2023-09-08T10:51:14;4.00;;;3.70;;
74674;SDS011;63200;48.810;12.352;2023-09-08T10:53:40;7.18;;;4.22;;
74674;SDS011;63200;48.810;12.352;2023-09-08T10:56:06;3.65;;;3.45;;
74674;SDS011;63200;48.810;12.352;2023-09-08T11:00:59;4.50;;;4.20;;
74674;SDS011;63200;48.810;12.352;2023-09-08T11:03:47;6.32;;;3.95;;
74674;SDS011;63200;48.810;12.352;2023-09-08T11:06:18;4.00;;;3.60;;
74674;SDS011;63200;48.810;12.352;2023-09-08T11:08:45;4.60;;;3.80;;
74674;SDS011;63200;48.810;12.352;2023-09-08T11:11:12;6.65;;;4.30;;
74674;SDS011;63200;48.810;12.352;2023-09-08T11:13:38;5.15;;;3.90;;
74674;SDS011;63200;48.810;12.352;2023-09-08T11:16:05;4.05;;;3.75;;
74674;SDS011;63200;48.810;12.352;2023-09-08T11:18:31;4.40;;;4.07;;
74674;SDS011;63200;48.810;12.352;2023-09-08T11:21:00;5.43;;;3.78;;
74674;SDS011;63200;48.810;12.352;2023-09-08T11:23:29;4.78;;;4.40;;
74674;SDS011;63200;48.810;12.352;2023-09-08T11:25:56;3.95;;;3.75;;
74674;SDS011;63200;48.810;12.352;2023-09-08T11:28:21;4.22;;;3.83;;
74674;SDS011;63200;48.810;12.352;2023-09-08T11:30:47;4.25;;;3.75;;
74674;SDS011;63200;48.810;12.352;2023-09-08T11:33:17;4.35;;;3.95;;
74674;SDS011;63200;48.810;12.352;2023-09-08T11:35:46;4.30;;;3.88;;
74674;SDS011;63200;48.810;12.352;2023-09-08T11:38:12;5.03;;;4.00;;
74674;SDS011;63200;48.810;12.352;2023-09-08T11:40:38;7.32;;;4.18;;
74674;SDS011;63200;48.810;12.352;2023-09-08T11:43:04;4.28;;;3.90;;
74674;SDS011;63200;48.810;12.352;2023-09-08T11:45:31;5.90;;;3.92;;
74674;SDS011;63200;48.810;12.352;2023-09-08T11:47:59;4.35;;;4.03;;
74674;SDS011;63200;48.810;12.352;2023-09-08T11:50:25;4.25;;;3.85;;
74674;SDS011;63200;48.810;12.352;2023-09-08T11:52:51;4.50;;;4.10;;
74674;SDS011;63200;48.810;12.352;2023-09-08T11:55:18;4.32;;;3.83;;
74674;SDS011;63200;48.810;12.352;2023-09-08T11:57:49;5.55;;;4.45;;
74674;SDS011;63200;48.810;12.352;2023-09-08T12:00:19;4.50;;;4.10;;
74674;SDS011;63200;48.810;12.352;2023-09-08T12:02:47;4.22;;;3.92;;
74674;SDS011;63200;48.810;12.352;2023-09-08T12:05:13;4.22;;;3.83;;
74674;SDS011;63200;48.810;12.352;2023-09-08T12:07:46;6.22;;;4.05;;
74674;SDS011;63200;48.810;12.352;2023-09-08T12:10:12;5.38;;;3.40;;
74674;SDS011;63200;48.810;12.352;2023-09-08T12:12:42;4.65;;;3.90;;
74674;SDS011;63200;48.810;12.352;2023-09-08T12:15:12;5.63;;;3.83;;
74674;SDS011;63200;48.810;12.352;2023-09-08T12:17:54;4.18;;;3.88;;
74674;SDS011;63200;48.810;12.352;2023-09-08T12:20:19;4.43;;;3.97;;
74674;SDS011;63200;48.810;12.352;2023-09-08T12:22:48;5.32;;;4.20;;
74674;SDS011;63200;48.810;12.352;2023-09-08T12:25:15;5.25;;;4.00;;
74674;SDS011;63200;48.810;12.352;2023-09-08T12:27:41;8.10;;;3.83;;
74674;SDS011;63200;48.810;12.352;2023-09-08T12:30:07;4.80;;;4.30;;
74674;SDS011;63200;48.810;12.352;2023-09-08T12:32:34;5.07;;;3.63;;
74674;SDS011;63200;48.810;12.352;2023-09-08T12:35:01;6.05;;;4.40;;
74674;SDS011;63200;48.810;12.352;2023-09-08T12:37:28;6.25;;;4.25;;
74674;SDS011;63200;48.810;12.352;2023-09-08T12:39:54;5.38;;;4.32;;
74674;SDS011;63200;48.810;12.352;2023-09-08T12:42:20;4.97;;;3.97;;
74674;SDS011;63200;48.810;12.352;2023-09-08T12:44:46;4.53;;;4.13;;
74674;SDS011;63200;48.810;12.352;2023-09-08T12:47:12;5.97;;;4.25;;
74674;SDS011;63200;48.810;12.352;2023-09-08T12:49:38;4.47;;;3.90;;
74674;SDS011;63200;48.810;12.352;2023-09-08T12:52:04;5.78;;;3.97;;
74674;SDS011;63200;48.810;12.352;2023-09-08T12:54:29;4.78;;;4.38;;
74674;SDS011;63200;48.810;12.352;2023-09-08T12:56:55;5.20;;;3.85;;
74674;SDS011;63200;48.810;12.352;2023-09-08T12:59:20;5.28;;;4.00;;
74674;SDS011;63200;48.810;12.352;2023-09-08T13:01:45;6.88;;;4.30;;
74674;SDS011;63200;48.810;12.352;2023-09-08T13:04:11;7.22;;;4.57;;
74674;SDS011;63200;48.810;12.352;2023-09-08T13:06:36;5.90;;;4.15;;
74674;SDS011;63200;48.810;12.352;2023-09-08T13:09:01;6.88;;;4.05;;
74674;SDS011;63200;48.810;12.352;2023-09-08T13:11:27;4.53;;;3.70;;
74674;SDS011;63200;48.810;12.352;2023-09-08T13:13:53;4.25;;;3.70;;
74674;SDS011;63200;48.810;12.352;2023-09-08T13:16:18;5.60;;;3.95;;
74674;SDS011;63200;48.810;12.352;2023-09-08T13:18:44;4.18;;;3.88;;
74674;SDS011;63200;48.810;12.352;2023-09-08T13:21:10;5.63;;;3.90;;
74674;SDS011;63200;48.810;12.352;2023-09-08T13:23:36;4.18;;;3.88;;
74674;SDS011;63200;48.810;12.352;2023-09-08T13:26:01;4.80;;;4.03;;
74674;SDS011;63200;48.810;12.352;2023-09-08T13:28:26;3.90;;;3.60;;
74674;SDS011;63200;48.810;12.352;2023-09-08T13:30:52;4.95;;;4.28;;
74674;SDS011;63200;48.810;12.352;2023-09-08T13:33:17;5.78;;;3.90;;
74674;SDS011;63200;48.810;12.352;2023-09-08T13:35:42;5.10;;;4.05;;
74674;SDS011;63200;48.810;12.352;2023-09-08T13:38:08;6.68;;;4.35;;
74674;SDS011;63200;48.810;12.352;2023-09-08T13:40:33;5.13;;;4.28;;
74674;SDS011;63200;48.810;12.352;2023-09-08T13:42:58;4.03;;;3.72;;
74674;SDS011;63200;48.810;12.352;2023-09-08T13:45:25;7.03;;;4.22;;
74674;SDS011;63200;48.810;12.352;2023-09-08T13:47:50;4.75;;;4.30;;
74674;SDS011;63200;48.810;12.352;2023-09-08T13:50:16;7.80;;;4.47;;
74674;SDS011;63200;48.810;12.352;2023-09-08T13:52:41;4.88;;;4.38;;
74674;SDS011;63200;48.810;12.352;2023-09-08T13:55:07;7.03;;;3.92;;
74674;SDS011;63200;48.810;12.352;2023-09-08T13:57:32;5.20;;;3.90;;
74674;SDS011;63200;48.810;12.352;2023-09-08T13:59:58;4.72;;;4.20;;
74674;SDS011;63200;48.810;12.352;2023-09-08T14:02:23;6.35;;;4.53;;
74674;SDS011;63200;48.810;12.352;2023-09-08T14:04:49;4.25;;;3.95;;
74674;SDS011;63200;48.810;12.352;2023-09-08T14:07:14;5.65;;;4.28;;
74674;SDS011;63200;48.810;12.352;2023-09-08T14:09:39;4.78;;;4.00;;
74674;SDS011;63200;48.810;12.352;2023-09-08T14:12:05;5.30;;;4.20;;
74674;SDS011;63200;48.810;12.352;2023-09-08T14:14:30;7.38;;;4.05;;
74674;SDS011;63200;48.810;12.352;2023-09-08T14:16:56;4.78;;;3.92;;
74674;SDS011;63200;48.810;12.352;2023-09-08T14:19:21;7.90;;;3.88;;
74674;SDS011;63200;48.810;12.352;2023-09-08T14:21:46;5.75;;;4.10;;
74674;SDS011;63200;48.810;12.352;2023-09-08T14:24:12;7.05;;;4.50;;
74674;SDS011;63200;48.810;12.352;2023-09-08T14:26:37;4.95;;;4.13;;
74674;SDS011;63200;48.810;12.352;2023-09-08T14:29:03;6.45;;;4.28;;
74674;SDS011;63200;48.810;12.352;2023-09-08T14:31:29;6.82;;;4.25;;
74674;SDS011;63200;48.810;12.352;2023-09-08T14:33:54;6.10;;;4.47;;
74674;SDS011;63200;48.810;12.352;2023-09-08T14:36:20;5.47;;;4.03;;
74674;SDS011;63200;48.810;12.352;2023-09-08T14:38:46;6.05;;;4.20;;